aviador You're here:

KAOO Decoded Metar

ALTOONA in PA, USA
Report Time2017-04-29 16:53:00
UTC Time2017-04-29 17:44:56
Flight Rules vfr VFR
Wind240° at 05 kt
W.Decomp.*RWY 21: 3.8 kt HW 3.2 kt RCW
RWY 30: 3.2 kt HW 3.8 kt LCW
W.Rank240° ranks 16
Current wind is below 240° avg. (7.2)
Visibility9999 m
Phenomena:N/A
Clouds:N/A
Expected CloudBase > 4,000 ft AGL from Temp-Dew spread
CeilingNone
Temp26°C (ISA +14)
Dew Point16°C (54% RH)
QNH1019 hPa
Density Alt3,150 ft
Elevation1,493 ft
Report Wrong Elevation
Raw Report
KAOO 291653Z AUTO 24005KT 10SM CLR 26/16 A3008=

Extra information for KAOO:More info

Metar Taf Metar & Taf Last 4 Metars F.Rules Stats Wind Profile Meteogram Temp Stats Airport Information Weather charts Add Link Nearby VenuesMetar ALERT Operation Metar Decoded Social comments

AIRNAV info for KAOO